Lowlands Sky — 3FJW9 — position and weather

sailwx.info

Track history (hours):
 
Tides and Currents Weather Stations Pressure Air Temp Water Temp Dewpoint Dewpoint Depression Visibility Wind Speed Wind Dir Waves Ship Positions

Lowlands Sky

Last reported at 2015-Apr-26 00:32 UTC. Time now 2015-Apr-26 01:22 UTC.
Position N 44°44' E 037°48'.

Length 177 m; draft 10.3 m.

Type: Cargo ship. MMSI: 370830000.

Date/timePositionNaut miles runAvg speedWind from/ knotsBaromVisibWave heightAir tempDewpointWater temp
2015-Apr-26 00:32N 44°44' E 037°48'0 0.0
2015-Apr-25 23:32N 44°44' E 037°48'0 0.0
2015-Apr-25 22:32N 44°44' E 037°48'0 0.0
2015-Apr-25 21:32N 44°44' E 037°48'0 0.0
2015-Apr-25 20:32N 44°44' E 037°48'0 0.0
2015-Apr-25 19:32N 44°44' E 037°48'0 0.0
2015-Apr-25 18:32N 44°44' E 037°48'0 0.0
2015-Apr-25 17:31N 44°44' E 037°48'0 0.0
2015-Apr-25 16:32N 44°44' E 037°48'0 0.0
2015-Apr-25 15:31N 44°44' E 037°48'0 0.0
2015-Apr-25 14:31N 44°44' E 037°48'0 0.0
2015-Apr-25 13:32N 44°44' E 037°48'0 0.0
2015-Apr-25 12:31N 44°44' E 037°48'0 0.0
2015-Apr-25 11:31N 44°44' E 037°48'0 0.0
2015-Apr-25 10:31N 44°44' E 037°48'0 0.0
2015-Apr-25 09:31N 44°44' E 037°48'0 0.0
2015-Apr-25 08:31N 44°44' E 037°48'0 0.0
2015-Apr-25 07:31N 44°44' E 037°48'1 0.9
2015-Apr-25 06:33N 44°43' E 037°48'5 5.3
2015-Apr-25 05:33N 44°38' E 037°52'9 8.8
2015-Apr-25 04:33N 44°30' E 037°52'1 1.3
2015-Apr-25 03:33N 44°28' E 037°53'0 0.3
2015-Apr-25 02:33N 44°28' E 037°52'1 0.8
2015-Apr-25 01:33N 44°28' E 037°51'3 2.8
2015-Apr-25 00:33N 44°30' E 037°48'1 0.7
2015-Apr-24 23:33N 44°30' E 037°47'1 0.7
2015-Apr-24 22:33N 44°29' E 037°46'0 0.4
2015-Apr-24 21:33N 44°29' E 037°46'3 3.3
2015-Apr-24 20:33N 44°32' E 037°48'1 0.9
2015-Apr-24 19:33N 44°32' E 037°47'1 0.8
2015-Apr-24 18:33N 44°31' E 037°46'1 0.8
2015-Apr-24 17:33N 44°31' E 037°45'1 0.6
2015-Apr-24 16:33N 44°31' E 037°44'5 4.8
2015-Apr-24 15:33N 44°32' E 037°51'0 0.3
2015-Apr-24 14:33N 44°32' E 037°51'1 0.8
2015-Apr-24 13:33N 44°32' E 037°49'1 0.9
2015-Apr-24 12:33N 44°32' E 037°48'1 0.9
2015-Apr-24 11:33N 44°32' E 037°47'1 0.6
2015-Apr-24 10:33N 44°31' E 037°47'7 6.5
2015-Apr-24 09:33N 44°30' E 037°56'1 0.6
2015-Apr-24 08:33N 44°30' E 037°55'1 0.6
2015-Apr-24 07:33N 44°30' E 037°54'1 0.5
2015-Apr-24 06:33N 44°30' E 037°53'0 0.5
2015-Apr-24 05:33N 44°30' E 037°53'0 0.4
2015-Apr-24 04:33N 44°30' E 037°52'0 0.4
2015-Apr-24 03:33N 44°29' E 037°52'0 0.5
2015-Apr-24 02:33N 44°29' E 037°51'1 0.5
2015-Apr-24 01:33N 44°30' E 037°50'1 0.6
2015-Apr-24 00:33N 44°30' E 037°50'1 0.6
2015-Apr-23 23:33N 44°30' E 037°49'1 0.7
2015-Apr-23 22:33N 44°30' E 037°48'1 0.6
2015-Apr-23 21:33N 44°31' E 037°47'1 0.7
2015-Apr-23 20:33N 44°31' E 037°46'1 0.6
2015-Apr-23 19:33N 44°31' E 037°46'3 3.3
2015-Apr-23 18:33N 44°29' E 037°49'4 4.0
2015-Apr-23 17:33N 44°26' E 037°54'1 1.1
2015-Apr-23 16:33N 44°27' E 037°53'1 1.2
2015-Apr-23 15:33N 44°28' E 037°52'1 1.3
2015-Apr-23 14:33N 44°29' E 037°50'1 1.3
2015-Apr-23 13:33N 44°30' E 037°49'1 1.3
2015-Apr-23 12:33N 44°31' E 037°47'1 0.6
2015-Apr-23 11:33N 44°31' E 037°47'5 5.5
2015-Apr-23 10:33N 44°27' E 037°52'1 1.0
2015-Apr-23 09:33N 44°28' E 037°51'1 0.7
2015-Apr-23 08:33N 44°28' E 037°50'1 0.6
2015-Apr-23 07:33N 44°29' E 037°50'1 0.6
2015-Apr-23 06:33N 44°29' E 037°49'1 0.5
2015-Apr-23 05:33N 44°30' E 037°49'0 0.4
2015-Apr-23 04:33N 44°30' E 037°49'0 0.5
2015-Apr-23 03:33N 44°30' E 037°48'0 0.5
2015-Apr-23 02:33N 44°31' E 037°48'0 0.4
2015-Apr-23 01:33N 44°31' E 037°48'0 0.4
2015-Apr-23 00:33N 44°32' E 037°47'0 0.3
2015-Apr-22 23:33N 44°32' E 037°47'0 0.3
2015-Apr-22 22:33N 44°32' E 037°47'1 0.9
2015-Apr-22 21:33N 44°31' E 037°47'6 6.2
2015-Apr-22 20:33N 44°28' E 037°54'1 0.7
2015-Apr-22 19:33N 44°28' E 037°54'1 0.8
2015-Apr-22 18:33N 44°29' E 037°53'1 0.8
2015-Apr-22 17:33N 44°29' E 037°53'1 0.8
2015-Apr-22 16:33N 44°30' E 037°52'1 0.8
2015-Apr-22 15:33N 44°30' E 037°51'1 0.8
2015-Apr-22 14:33N 44°31' E 037°50'1 0.8
2015-Apr-22 13:33N 44°31' E 037°49'1 0.9
2015-Apr-22 12:33N 44°31' E 037°48'0 0.3
2015-Apr-22 11:33N 44°31' E 037°47'3 3.0
2015-Apr-22 10:33N 44°31' E 037°52'3 2.7
2015-Apr-22 09:33N 44°30' E 037°55'1 0.8
2015-Apr-22 08:33N 44°31' E 037°54'1 0.7
2015-Apr-22 07:33N 44°31' E 037°53'1 0.6
2015-Apr-22 06:33N 44°31' E 037°52'1 0.6
2015-Apr-22 05:33N 44°31' E 037°52'1 0.6
2015-Apr-22 04:33N 44°31' E 037°51'1 0.6
2015-Apr-22 03:33N 44°31' E 037°50'1 0.7
2015-Apr-22 02:32N 44°31' E 037°49'1 0.7
2015-Apr-22 01:32N 44°31' E 037°48'1 0.6
2015-Apr-22 00:33N 44°31' E 037°47'1 1.4
2015-Apr-21 23:33N 44°33' E 037°47'7 7.1
2015-Apr-21 22:33N 44°39' E 037°50'2 2.0
2015-Apr-21 21:33N 44°41' E 037°50'0 0.0
2015-Apr-21 20:33N 44°41' E 037°50'0 0.0
2015-Apr-21 19:33N 44°41' E 037°50'0 0.0
2015-Apr-21 18:33N 44°41' E 037°50'0 0.0
2015-Apr-21 17:33N 44°41' E 037°50'0 0.1
2015-Apr-21 16:34N 44°41' E 037°50'6 6.2
2015-Apr-21 15:34N 44°35' E 037°52'4 4.0
2015-Apr-21 14:31N 44°34' E 037°57'0 0.0
2015-Apr-21 13:31N 44°34' E 037°57'0 0.0
2015-Apr-21 12:31N 44°34' E 037°57'0 0.0
2015-Apr-21 11:31N 44°34' E 037°57'0 0.0
2015-Apr-21 10:31N 44°34' E 037°57'0 0.0
2015-Apr-21 09:31N 44°34' E 037°57'0 0.0
2015-Apr-21 08:31N 44°34' E 037°57'0 0.0
2015-Apr-21 07:33N 44°34' E 037°57'0 0.0
2015-Apr-21 06:33N 44°34' E 037°57'0 0.3
2015-Apr-21 05:33N 44°34' E 037°57'7 7.2
2015-Apr-21 04:34N 44°28' E 037°51'3 3.4
2015-Apr-21 03:33N 44°26' E 037°55'2 2.0
2015-Apr-21 02:33N 44°26' E 037°52'2 2.1
2015-Apr-21 01:33N 44°26' E 037°49'2 2.1
2015-Apr-21 00:33N 44°25' E 037°46'2 2.0
2015-Apr-20 23:33N 44°24' E 037°43'5 5.2
2015-Apr-20 22:33N 44°24' E 037°51'7 7.3
2015-Apr-20 21:33N 44°25' E 038°01'1 1.1
2015-Apr-20 20:23N 44°23' E 038°02'1 1.6
2015-Apr-20 19:33N 44°24' E 037°60'2 1.6
2015-Apr-20 18:32N 44°24' E 037°57'2 1.6
2015-Apr-20 17:33N 44°24' E 037°55'2 1.6
2015-Apr-20 16:33N 44°24' E 037°53'2 1.8
2015-Apr-20 15:33N 44°24' E 037°51'2 1.8
2015-Apr-20 14:33N 44°23' E 037°48'2 1.8
2015-Apr-20 13:33N 44°23' E 037°46'5 4.8
2015-Apr-20 12:33N 44°27' E 037°49'5 4.5
2015-Apr-20 11:33N 44°28' E 037°55'1 1.2
2015-Apr-20 10:31N 44°29' E 037°54'3 1.6
2015-Apr-20 08:31N 44°28' E 037°50'1 0.8
2015-Apr-20 07:31N 44°28' E 037°49'5 5.2
2015-Apr-20 06:33N 44°31' E 037°54'4 3.9
2015-Apr-20 05:33N 44°35' E 037°56'0 0.1
2015-Apr-20 04:33N 44°35' E 037°56'0 0.1
2015-Apr-20 03:30N 44°35' E 037°56'0 0.3
2015-Apr-20 02:33N 44°35' E 037°56'8 8.1
2015-Apr-20 01:33N 44°31' E 037°46'1413.5
2015-Apr-20 00:32N 44°24' E 037°29'39213.1
2015-Apr-18 18:33N 41°26' E 029°32'1513.8
2015-Apr-18 17:27N 41°18' E 029°15'21 9.1
2015-Apr-18 15:08N 40°60' E 028°60'6 9.3
2015-Apr-18 14:30N 40°55' E 028°57'9 9.1
2015-Apr-18 13:33N 40°46' E 028°55'  
2015-Apr-16 08:28N 36°44' E 023°41'  
Track history (hours):
 
Tides and Currents Weather Stations Pressure Air Temp Water Temp Dewpoint Dewpoint Depression Visibility Wind Speed Wind Dir Waves Ship Positions

Lowlands Sky

Last reported at 2015-Apr-26 00:32 UTC. Time now 2015-Apr-26 01:22 UTC.
Position N 44°44' E 037°48'.

Length 177 m; draft 10.3 m.

Type: Cargo ship. MMSI: 370830000.

Date/timePositionNaut miles runAvg speedWind from/ knotsBaromVisibWave heightAir tempDewpointWater temp
2015-Apr-26 00:32N 44°44' E 037°48'0 0.0
2015-Apr-25 23:32N 44°44' E 037°48'0 0.0
2015-Apr-25 22:32N 44°44' E 037°48'0 0.0
2015-Apr-25 21:32N 44°44' E 037°48'0 0.0
2015-Apr-25 20:32N 44°44' E 037°48'0 0.0
2015-Apr-25 19:32N 44°44' E 037°48'0 0.0
2015-Apr-25 18:32N 44°44' E 037°48'0 0.0
2015-Apr-25 17:31N 44°44' E 037°48'0 0.0
2015-Apr-25 16:32N 44°44' E 037°48'0 0.0
2015-Apr-25 15:31N 44°44' E 037°48'0 0.0
2015-Apr-25 14:31N 44°44' E 037°48'0 0.0
2015-Apr-25 13:32N 44°44' E 037°48'0 0.0
2015-Apr-25 12:31N 44°44' E 037°48'0 0.0
2015-Apr-25 11:31N 44°44' E 037°48'0 0.0
2015-Apr-25 10:31N 44°44' E 037°48'0 0.0
2015-Apr-25 09:31N 44°44' E 037°48'0 0.0
2015-Apr-25 08:31N 44°44' E 037°48'0 0.0
2015-Apr-25 07:31N 44°44' E 037°48'1 0.9
2015-Apr-25 06:33N 44°43' E 037°48'5 5.3
2015-Apr-25 05:33N 44°38' E 037°52'9 8.8
2015-Apr-25 04:33N 44°30' E 037°52'1 1.3
2015-Apr-25 03:33N 44°28' E 037°53'0 0.3
2015-Apr-25 02:33N 44°28' E 037°52'1 0.8
2015-Apr-25 01:33N 44°28' E 037°51'3 2.8
2015-Apr-25 00:33N 44°30' E 037°48'1 0.7
2015-Apr-24 23:33N 44°30' E 037°47'1 0.7
2015-Apr-24 22:33N 44°29' E 037°46'0 0.4
2015-Apr-24 21:33N 44°29' E 037°46'3 3.3
2015-Apr-24 20:33N 44°32' E 037°48'1 0.9
2015-Apr-24 19:33N 44°32' E 037°47'1 0.8
2015-Apr-24 18:33N 44°31' E 037°46'1 0.8
2015-Apr-24 17:33N 44°31' E 037°45'1 0.6
2015-Apr-24 16:33N 44°31' E 037°44'5 4.8
2015-Apr-24 15:33N 44°32' E 037°51'0 0.3
2015-Apr-24 14:33N 44°32' E 037°51'1 0.8
2015-Apr-24 13:33N 44°32' E 037°49'1 0.9
2015-Apr-24 12:33N 44°32' E 037°48'1 0.9
2015-Apr-24 11:33N 44°32' E 037°47'1 0.6
2015-Apr-24 10:33N 44°31' E 037°47'7 6.5
2015-Apr-24 09:33N 44°30' E 037°56'1 0.6
2015-Apr-24 08:33N 44°30' E 037°55'1 0.6
2015-Apr-24 07:33N 44°30' E 037°54'1 0.5
2015-Apr-24 06:33N 44°30' E 037°53'0 0.5
2015-Apr-24 05:33N 44°30' E 037°53'0 0.4
2015-Apr-24 04:33N 44°30' E 037°52'0 0.4
2015-Apr-24 03:33N 44°29' E 037°52'0 0.5
2015-Apr-24 02:33N 44°29' E 037°51'1 0.5
2015-Apr-24 01:33N 44°30' E 037°50'1 0.6
2015-Apr-24 00:33N 44°30' E 037°50'1 0.6
2015-Apr-23 23:33N 44°30' E 037°49'1 0.7
2015-Apr-23 22:33N 44°30' E 037°48'1 0.6
2015-Apr-23 21:33N 44°31' E 037°47'1 0.7
2015-Apr-23 20:33N 44°31' E 037°46'1 0.6
2015-Apr-23 19:33N 44°31' E 037°46'3 3.3
2015-Apr-23 18:33N 44°29' E 037°49'4 4.0
2015-Apr-23 17:33N 44°26' E 037°54'1 1.1
2015-Apr-23 16:33N 44°27' E 037°53'1 1.2
2015-Apr-23 15:33N 44°28' E 037°52'1 1.3
2015-Apr-23 14:33N 44°29' E 037°50'1 1.3
2015-Apr-23 13:33N 44°30' E 037°49'1 1.3
2015-Apr-23 12:33N 44°31' E 037°47'1 0.6
2015-Apr-23 11:33N 44°31' E 037°47'5 5.5
2015-Apr-23 10:33N 44°27' E 037°52'1 1.0
2015-Apr-23 09:33N 44°28' E 037°51'1 0.7
2015-Apr-23 08:33N 44°28' E 037°50'1 0.6
2015-Apr-23 07:33N 44°29' E 037°50'1 0.6
2015-Apr-23 06:33N 44°29' E 037°49'1 0.5
2015-Apr-23 05:33N 44°30' E 037°49'0 0.4
2015-Apr-23 04:33N 44°30' E 037°49'0 0.5
2015-Apr-23 03:33N 44°30' E 037°48'0 0.5
2015-Apr-23 02:33N 44°31' E 037°48'0 0.4
2015-Apr-23 01:33N 44°31' E 037°48'0 0.4
2015-Apr-23 00:33N 44°32' E 037°47'0 0.3
2015-Apr-22 23:33N 44°32' E 037°47'0 0.3
2015-Apr-22 22:33N 44°32' E 037°47'1 0.9
2015-Apr-22 21:33N 44°31' E 037°47'6 6.2
2015-Apr-22 20:33N 44°28' E 037°54'1 0.7
2015-Apr-22 19:33N 44°28' E 037°54'1 0.8
2015-Apr-22 18:33N 44°29' E 037°53'1 0.8
2015-Apr-22 17:33N 44°29' E 037°53'1 0.8
2015-Apr-22 16:33N 44°30' E 037°52'1 0.8
2015-Apr-22 15:33N 44°30' E 037°51'1 0.8
2015-Apr-22 14:33N 44°31' E 037°50'1 0.8
2015-Apr-22 13:33N 44°31' E 037°49'1 0.9
2015-Apr-22 12:33N 44°31' E 037°48'0 0.3
2015-Apr-22 11:33N 44°31' E 037°47'3 3.0
2015-Apr-22 10:33N 44°31' E 037°52'3 2.7
2015-Apr-22 09:33N 44°30' E 037°55'1 0.8
2015-Apr-22 08:33N 44°31' E 037°54'1 0.7
2015-Apr-22 07:33N 44°31' E 037°53'1 0.6
2015-Apr-22 06:33N 44°31' E 037°52'1 0.6
2015-Apr-22 05:33N 44°31' E 037°52'1 0.6
2015-Apr-22 04:33N 44°31' E 037°51'1 0.6
2015-Apr-22 03:33N 44°31' E 037°50'1 0.7
2015-Apr-22 02:32N 44°31' E 037°49'1 0.7
2015-Apr-22 01:32N 44°31' E 037°48'1 0.6
2015-Apr-22 00:33N 44°31' E 037°47'1 1.4
2015-Apr-21 23:33N 44°33' E 037°47'7 7.1
2015-Apr-21 22:33N 44°39' E 037°50'2 2.0
2015-Apr-21 21:33N 44°41' E 037°50'0 0.0
2015-Apr-21 20:33N 44°41' E 037°50'0 0.0
2015-Apr-21 19:33N 44°41' E 037°50'0 0.0
2015-Apr-21 18:33N 44°41' E 037°50'0 0.0
2015-Apr-21 17:33N 44°41' E 037°50'0 0.1
2015-Apr-21 16:34N 44°41' E 037°50'6 6.2
2015-Apr-21 15:34N 44°35' E 037°52'4 4.0
2015-Apr-21 14:31N 44°34' E 037°57'0 0.0
2015-Apr-21 13:31N 44°34' E 037°57'0 0.0
2015-Apr-21 12:31N 44°34' E 037°57'0 0.0
2015-Apr-21 11:31N 44°34' E 037°57'0 0.0
2015-Apr-21 10:31N 44°34' E 037°57'0 0.0
2015-Apr-21 09:31N 44°34' E 037°57'0 0.0
2015-Apr-21 08:31N 44°34' E 037°57'0 0.0
2015-Apr-21 07:33N 44°34' E 037°57'0 0.0
2015-Apr-21 06:33N 44°34' E 037°57'0 0.3
2015-Apr-21 05:33N 44°34' E 037°57'7 7.2
2015-Apr-21 04:34N 44°28' E 037°51'3 3.4
2015-Apr-21 03:33N 44°26' E 037°55'2 2.0
2015-Apr-21 02:33N 44°26' E 037°52'2 2.1
2015-Apr-21 01:33N 44°26' E 037°49'2 2.1
2015-Apr-21 00:33N 44°25' E 037°46'2 2.0
2015-Apr-20 23:33N 44°24' E 037°43'5 5.2
2015-Apr-20 22:33N 44°24' E 037°51'7 7.3
2015-Apr-20 21:33N 44°25' E 038°01'1 1.1
2015-Apr-20 20:23N 44°23' E 038°02'1 1.6
2015-Apr-20 19:33N 44°24' E 037°60'2 1.6
2015-Apr-20 18:32N 44°24' E 037°57'2 1.6
2015-Apr-20 17:33N 44°24' E 037°55'2 1.6
2015-Apr-20 16:33N 44°24' E 037°53'2 1.8
2015-Apr-20 15:33N 44°24' E 037°51'2 1.8
2015-Apr-20 14:33N 44°23' E 037°48'2 1.8
2015-Apr-20 13:33N 44°23' E 037°46'5 4.8
2015-Apr-20 12:33N 44°27' E 037°49'5 4.5
2015-Apr-20 11:33N 44°28' E 037°55'1 1.2
2015-Apr-20 10:31N 44°29' E 037°54'3 1.6
2015-Apr-20 08:31N 44°28' E 037°50'1 0.8
2015-Apr-20 07:31N 44°28' E 037°49'5 5.2
2015-Apr-20 06:33N 44°31' E 037°54'4 3.9
2015-Apr-20 05:33N 44°35' E 037°56'0 0.1
2015-Apr-20 04:33N 44°35' E 037°56'0 0.1
2015-Apr-20 03:30N 44°35' E 037°56'0 0.3
2015-Apr-20 02:33N 44°35' E 037°56'8 8.1
2015-Apr-20 01:33N 44°31' E 037°46'1413.5
2015-Apr-20 00:32N 44°24' E 037°29'39213.1
2015-Apr-18 18:33N 41°26' E 029°32'1513.8
2015-Apr-18 17:27N 41°18' E 029°15'21 9.1
2015-Apr-18 15:08N 40°60' E 028°60'6 9.3
2015-Apr-18 14:30N 40°55' E 028°57'9 9.1
2015-Apr-18 13:33N 40°46' E 028°55'  
2015-Apr-16 08:28N 36°44' E 023°41'  

Dump ship's entire track history